»·PEaware :: N50212 KSNA-KBFL

N50212 :: KSNA-KBFL

FLIGHT INFORMATION

Flight Status: Arrived
Operator: Privately registered:
United States
More flights under this callsign
Pilot: Brad H. (9994)
Aircraft: PIPER PA-34 SENECA
(PA34)
More flights by this aircraft type
Origin: KSNA John Wayne-Orange Co
United States
Destination: KBFL Meadows
United States
More flights between these airports :: More routes between these airports
Route: +ANAHM9 LHS FASTO2
File this flight plan on PilotEdge
Remarks:
Altitude:
(Current/Filed)
8,000ft
Speed:
(Current/Filed)
140kts
Departed: 03-Jan-18 08:21 AM
Arrived: 03-Jan-18 09:20 AM
Distance/Time
Traveled:
121nm/0:59
Distance/Time
To Go:
Arrived

Flight Plot

Page will automatically refresh every two minutes.

Flight plan parsing failed; only flown route is shown


Map Options




Map Legend


Flown Route
Filed Route
Departure Airport
Arrival Airport
Navaid (VOR, NDB)
Fix

Horizontal Profiles

Position Reports

Time Latitude Longitude Heading Altitude Ground
Speed
03-Jan-18 08:04 33.672486 -117.866872 210 47ft 0kts
03-Jan-18 08:05 33.672486 -117.866872 210 47ft 0kts
03-Jan-18 08:06 33.672486 -117.866872 210 47ft 0kts
03-Jan-18 08:07 33.672486 -117.866872 210 47ft 0kts
03-Jan-18 08:08 33.672486 -117.866872 210 47ft 0kts
03-Jan-18 08:09 33.672486 -117.866872 210 47ft 0kts
03-Jan-18 08:10 33.672486 -117.866872 210 47ft 0kts
03-Jan-18 08:11 33.672486 -117.866872 210 47ft 0kts
03-Jan-18 08:12 33.672486 -117.866872 210 47ft 0kts
03-Jan-18 08:13 33.672486 -117.866872 210 47ft 0kts
03-Jan-18 08:14 33.672486 -117.866872 210 47ft 0kts
03-Jan-18 08:15 33.672486 -117.866872 210 47ft 0kts
03-Jan-18 08:16 33.672486 -117.866872 210 47ft 0kts
03-Jan-18 08:17 33.672486 -117.866872 210 47ft 0kts
03-Jan-18 08:18 33.672486 -117.866872 210 47ft 0kts
03-Jan-18 08:19 33.672486 -117.866872 210 47ft 0kts
03-Jan-18 08:20 33.672486 -117.866872 210 47ft 0kts
03-Jan-18 08:21 33.672486 -117.866872 210 47ft 0kts
03-Jan-18 08:22 33.672516 -117.867166 329 48ft 0kts
03-Jan-18 08:23 33.672888 -117.867269 7 47ft 12kts
03-Jan-18 08:24 33.676298 -117.865699 26 44ft 15kts
03-Jan-18 08:25 33.679926 -117.863622 319 39ft 0kts
03-Jan-18 08:26 33.679933 -117.863629 319 39ft 0kts
03-Jan-18 08:27 33.670941 -117.869969 207 216ft 110kts
03-Jan-18 08:28 33.647958 -117.896840 236 1792ft 120kts
03-Jan-18 08:29 33.632821 -117.936479 290 2875ft 143kts
03-Jan-18 08:30 33.667229 -117.941982 17 4223ft 140kts
03-Jan-18 08:31 33.704620 -117.924834 21 5047ft 144kts
03-Jan-18 08:32 33.742967 -117.906850 20 5535ft 150kts
03-Jan-18 08:33 33.782188 -117.888363 20 5972ft 154kts
03-Jan-18 08:34 33.822440 -117.869338 22 5973ft 156kts
03-Jan-18 08:35 33.842478 -117.824011 70 5975ft 158kts
03-Jan-18 08:36 33.862484 -117.782427 7 5973ft 158kts
03-Jan-18 08:37 33.906248 -117.783890 0 6122ft 154kts
03-Jan-18 08:38 33.948608 -117.784808 0 6618ft 152kts
03-Jan-18 08:39 33.989463 -117.784788 357 7360ft 143kts
03-Jan-18 08:40 34.015496 -117.811487 290 7990ft 145kts
03-Jan-18 08:41 34.030296 -117.859000 289 7989ft 155kts
03-Jan-18 08:42 34.045483 -117.908178 289 7985ft 157kts
03-Jan-18 08:43 34.060684 -117.957516 290 7980ft 157kts
03-Jan-18 08:44 34.075956 -118.007190 290 7986ft 156kts
03-Jan-18 08:45 34.089227 -118.050109 289 8832ft 122kts
03-Jan-18 08:46 34.100265 -118.085571 291 9684ft 106kts
03-Jan-18 08:47 34.111801 -118.122993 288 10041ft 133kts
03-Jan-18 08:48 34.125847 -118.169069 288 10017ft 156kts
03-Jan-18 08:49 34.141110 -118.219090 288 9987ft 160kts
03-Jan-18 08:50 34.157657 -118.268949 313 9972ft 162kts
03-Jan-18 08:51 34.198207 -118.293464 332 9992ft 163kts
03-Jan-18 08:52 34.239241 -118.317247 332 9992ft 164kts
03-Jan-18 08:53 34.280246 -118.340885 332 10002ft 164kts
03-Jan-18 08:54 34.321477 -118.364826 332 10003ft 164kts
03-Jan-18 08:55 34.362714 -118.388818 332 10004ft 164kts
03-Jan-18 08:56 34.403914 -118.412816 332 10005ft 164kts
03-Jan-18 08:57 34.444909 -118.436715 332 10024ft 164kts
03-Jan-18 08:58 34.486059 -118.460735 332 10038ft 164kts
03-Jan-18 08:59 34.527872 -118.485186 332 9916ft 166kts
03-Jan-18 09:00 34.569211 -118.509361 332 9915ft 164kts
03-Jan-18 09:01 34.610316 -118.533429 332 9932ft 163kts
03-Jan-18 09:02 34.651231 -118.557418 332 9956ft 163kts
03-Jan-18 09:03 34.691518 -118.582549 317 9967ft 162kts
03-Jan-18 09:04 34.725401 -118.618627 317 9955ft 163kts
03-Jan-18 09:05 34.759943 -118.654951 317 9879ft 164kts
03-Jan-18 09:06 34.794552 -118.691423 317 9818ft 164kts
03-Jan-18 09:07 34.828994 -118.727788 317 9775ft 163kts
03-Jan-18 09:08 34.863172 -118.763923 317 9751ft 162kts
03-Jan-18 09:09 34.897272 -118.800043 317 9744ft 162kts
03-Jan-18 09:10 34.931005 -118.835910 317 9762ft 160kts
03-Jan-18 09:11 34.971127 -118.856872 350 9776ft 163kts
03-Jan-18 09:12 35.016287 -118.860980 355 9779ft 163kts
03-Jan-18 09:13 35.061447 -118.864279 355 9790ft 162kts
03-Jan-18 09:14 35.106348 -118.866892 359 9820ft 162kts
03-Jan-18 09:15 35.151420 -118.866236 359 9847ft 161kts
03-Jan-18 09:16 35.196199 -118.865536 359 9875ft 161kts
03-Jan-18 09:17 35.239635 -118.864802 357 9950ft 123kts
03-Jan-18 09:18 35.272074 -118.872388 342 8308ft 120kts
03-Jan-18 09:19 35.299930 -118.891829 317 6627ft 115kts
03-Jan-18 09:20 35.317965 -118.914429 310 5209ft 110kts
03-Jan-18 09:21 35.342733 -118.945709 316 3107ft 108kts
03-Jan-18 09:22 35.359600 -118.967692 318 2424ft 102kts
03-Jan-18 09:23 35.382919 -118.995449 316 1975ft 106kts
03-Jan-18 09:24 35.400803 -119.015824 319 1330ft 100kts
03-Jan-18 09:25 35.422977 -119.043205 321 703ft 94kts
03-Jan-18 09:26 35.437409 -119.060459 312 487ft 38kts
03-Jan-18 09:27 35.440335 -119.062604 23 493ft 0kts
03-Jan-18 09:28 35.440481 -119.062169 102 495ft 5kts
03-Jan-18 09:29 35.438150 -119.059176 137 491ft 16kts
03-Jan-18 09:30 35.437641 -119.056391 96 499ft 0kts

Navigation Log

Ident Type
Flight plan parsing failed, navigation log unavailable